sensor_id;sensor_type;location;lat;lon;timestamp;pressure;altitude;pressure_sealevel;temperature;humidity
44457;BME280;30159;49.316;8.558;2024-02-15T00:01:50;100869.09;;;11.96;100.00
44457;BME280;30159;49.316;8.558;2024-02-15T00:04:18;100870.97;;;11.95;100.00
44457;BME280;30159;49.316;8.558;2024-02-15T00:06:45;100871.53;;;11.77;100.00
44457;BME280;30159;49.316;8.558;2024-02-15T00:09:12;100878.63;;;11.57;100.00
44457;BME280;30159;49.316;8.558;2024-02-15T00:11:39;100879.75;;;11.41;100.00
44457;BME280;30159;49.316;8.558;2024-02-15T00:14:06;100864.91;;;11.33;100.00
44457;BME280;30159;49.316;8.558;2024-02-15T00:16:33;100876.50;;;11.54;100.00
44457;BME280;30159;49.316;8.558;2024-02-15T00:19:00;100866.44;;;11.65;100.00
44457;BME280;30159;49.316;8.558;2024-02-15T00:21:28;100862.38;;;11.68;100.00
44457;BME280;30159;49.316;8.558;2024-02-15T00:23:55;100843.53;;;11.52;100.00
44457;BME280;30159;49.316;8.558;2024-02-15T00:26:22;100821.97;;;11.32;100.00
44457;BME280;30159;49.316;8.558;2024-02-15T00:28:49;100871.59;;;11.62;100.00
44457;BME280;30159;49.316;8.558;2024-02-15T00:31:15;100871.09;;;11.54;100.00
44457;BME280;30159;49.316;8.558;2024-02-15T00:33:42;100869.44;;;11.53;100.00
44457;BME280;30159;49.316;8.558;2024-02-15T00:36:10;100862.44;;;11.42;100.00
44457;BME280;30159;49.316;8.558;2024-02-15T00:38:38;100855.44;;;11.41;100.00
44457;BME280;30159;49.316;8.558;2024-02-15T00:41:05;100856.75;;;11.49;100.00
44457;BME280;30159;49.316;8.558;2024-02-15T00:43:34;100858.13;;;11.41;100.00
44457;BME280;30159;49.316;8.558;2024-02-15T00:46:02;100864.91;;;11.33;100.00
44457;BME280;30159;49.316;8.558;2024-02-15T00:48:28;100833.34;;;11.13;100.00
44457;BME280;30159;49.316;8.558;2024-02-15T00:50:55;100850.63;;;11.17;100.00
44457;BME280;30159;49.316;8.558;2024-02-15T00:53:21;100831.72;;;11.02;100.00
44457;BME280;30159;49.316;8.558;2024-02-15T00:55:49;100851.44;;;11.13;100.00
44457;BME280;30159;49.316;8.558;2024-02-15T00:58:16;100852.22;;;11.18;100.00
44457;BME280;30159;49.316;8.558;2024-02-15T01:00:43;100850.88;;;11.21;100.00
44457;BME280;30159;49.316;8.558;2024-02-15T01:03:09;100850.88;;;11.31;100.00
44457;BME280;30159;49.316;8.558;2024-02-15T01:05:36;100845.19;;;11.28;100.00
44457;BME280;30159;49.316;8.558;2024-02-15T01:08:03;100850.03;;;11.41;100.00
44457;BME280;30159;49.316;8.558;2024-02-15T01:10:30;100844.06;;;11.44;100.00
44457;BME280;30159;49.316;8.558;2024-02-15T01:13:00;100847.31;;;11.51;100.00
44457;BME280;30159;49.316;8.558;2024-02-15T01:15:27;100839.22;;;11.46;100.00
44457;BME280;30159;49.316;8.558;2024-02-15T01:17:54;100836.00;;;11.34;100.00
44457;BME280;30159;49.316;8.558;2024-02-15T01:20:21;100840.09;;;11.26;100.00
44457;BME280;30159;49.316;8.558;2024-02-15T01:22:47;100800.16;;;11.08;100.00
44457;BME280;30159;49.316;8.558;2024-02-15T01:25:15;100824.66;;;11.32;100.00
44457;BME280;30159;49.316;8.558;2024-02-15T01:27:42;100834.38;;;11.43;100.00
44457;BME280;30159;49.316;8.558;2024-02-15T01:30:11;100826.78;;;11.50;100.00
44457;BME280;30159;49.316;8.558;2024-02-15T01:32:38;100842.94;;;11.60;100.00
44457;BME280;30159;49.316;8.558;2024-02-15T01:35:07;100835.38;;;11.68;100.00
44457;BME280;30159;49.316;8.558;2024-02-15T01:37:35;100821.59;;;11.69;100.00
44457;BME280;30159;49.316;8.558;2024-02-15T01:40:02;100817.53;;;11.72;100.00
44457;BME280;30159;49.316;8.558;2024-02-15T01:42:34;100827.47;;;11.87;100.00
44457;BME280;30159;49.316;8.558;2024-02-15T01:45:01;100805.13;;;11.66;100.00
44457;BME280;30159;49.316;8.558;2024-02-15T01:47:31;100827.75;;;11.90;100.00
44457;BME280;30159;49.316;8.558;2024-02-15T01:49:57;100824.75;;;11.97;100.00
44457;BME280;30159;49.316;8.558;2024-02-15T01:52:24;100826.94;;;11.90;100.00
44457;BME280;30159;49.316;8.558;2024-02-15T01:54:52;100821.81;;;11.88;100.00
44457;BME280;30159;49.316;8.558;2024-02-15T01:57:20;100816.63;;;11.97;100.00
44457;BME280;30159;49.316;8.558;2024-02-15T01:59:49;100830.94;;;11.97;100.00
44457;BME280;30159;49.316;8.558;2024-02-15T02:02:18;100821.28;;;11.91;100.00
44457;BME280;30159;49.316;8.558;2024-02-15T02:04:48;100702.66;;;11.20;100.00
44457;BME280;30159;49.316;8.558;2024-02-15T02:07:15;100814.69;;;12.02;100.00
44457;BME280;30159;49.316;8.558;2024-02-15T02:09:41;100810.94;;;12.04;100.00
44457;BME280;30159;49.316;8.558;2024-02-15T02:12:08;100800.16;;;11.98;100.00
44457;BME280;30159;49.316;8.558;2024-02-15T02:14:35;100807.13;;;12.05;100.00
44457;BME280;30159;49.316;8.558;2024-02-15T02:17:11;100788.25;;;11.94;100.00
44457;BME280;30159;49.316;8.558;2024-02-15T02:19:38;100813.06;;;12.07;100.00
44457;BME280;30159;49.316;8.558;2024-02-15T02:22:06;100807.09;;;12.10;100.00
44457;BME280;30159;49.316;8.558;2024-02-15T02:24:40;100808.44;;;12.12;100.00
44457;BME280;30159;49.316;8.558;2024-02-15T02:27:13;100808.19;;;12.09;100.00
44457;BME280;30159;49.316;8.558;2024-02-15T02:29:42;100816.03;;;12.10;100.00
44457;BME280;30159;49.316;8.558;2024-02-15T02:32:11;100809.53;;;12.11;100.00
44457;BME280;30159;49.316;8.558;2024-02-15T02:34:38;100817.66;;;12.06;100.00
44457;BME280;30159;49.316;8.558;2024-02-15T02:37:06;100808.28;;;11.88;100.00
44457;BME280;30159;49.316;8.558;2024-02-15T02:39:33;100820.38;;;12.06;100.00
44457;BME280;30159;49.316;8.558;2024-02-15T02:42:00;100823.06;;;12.06;100.00
44457;BME280;30159;49.316;8.558;2024-02-15T02:44:28;100804.69;;;12.08;100.00
44457;BME280;30159;49.316;8.558;2024-02-15T02:46:55;100817.88;;;12.20;100.00
44457;BME280;30159;49.316;8.558;2024-02-15T02:49:21;100804.84;;;12.27;100.00
44457;BME280;30159;49.316;8.558;2024-02-15T02:51:48;100810.31;;;12.17;100.00
44457;BME280;30159;49.316;8.558;2024-02-15T02:54:15;100814.41;;;12.09;100.00
44457;BME280;30159;49.316;8.558;2024-02-15T02:56:41;100817.41;;;12.08;100.00
44457;BME280;30159;49.316;8.558;2024-02-15T02:59:09;100809.81;;;12.05;100.00
44457;BME280;30159;49.316;8.558;2024-02-15T03:01:37;100804.44;;;11.99;100.00
44457;BME280;30159;49.316;8.558;2024-02-15T03:04:05;100803.13;;;11.97;100.00
44457;BME280;30159;49.316;8.558;2024-02-15T03:06:31;100806.09;;;11.95;100.00
44457;BME280;30159;49.316;8.558;2024-02-15T03:08:58;100802.34;;;11.91;100.00
44457;BME280;30159;49.316;8.558;2024-02-15T03:11:25;100781.28;;;11.78;100.00
44457;BME280;30159;49.316;8.558;2024-02-15T03:13:51;100802.31;;;11.96;100.00
44457;BME280;30159;49.316;8.558;2024-02-15T03:16:22;100788.53;;;11.93;100.00
44457;BME280;30159;49.316;8.558;2024-02-15T03:18:51;100805.75;;;12.07;100.00
44457;BME280;30159;49.316;8.558;2024-02-15T03:21:18;100812.28;;;12.01;100.00
44457;BME280;30159;49.316;8.558;2024-02-15T03:23:45;100810.13;;;12.03;100.00
44457;BME280;30159;49.316;8.558;2024-02-15T03:26:12;100814.44;;;12.04;100.00
44457;BME280;30159;49.316;8.558;2024-02-15T03:28:39;100803.88;;;12.02;100.00
44457;BME280;30159;49.316;8.558;2024-02-15T03:31:06;100810.13;;;11.98;100.00
44457;BME280;30159;49.316;8.558;2024-02-15T03:33:32;100809.91;;;11.89;100.00
44457;BME280;30159;49.316;8.558;2024-02-15T03:36:01;100815.31;;;11.89;100.00
44457;BME280;30159;49.316;8.558;2024-02-15T03:38:28;100817.94;;;12.05;100.00
44457;BME280;30159;49.316;8.558;2024-02-15T03:40:55;100789.34;;;11.98;100.00
44457;BME280;30159;49.316;8.558;2024-02-15T03:43:22;100806.56;;;12.13;100.00
44457;BME280;30159;49.316;8.558;2024-02-15T03:45:49;100814.16;;;12.06;100.00
44457;BME280;30159;49.316;8.558;2024-02-15T03:48:16;100825.25;;;12.04;100.00
44457;BME280;30159;49.316;8.558;2024-02-15T03:50:43;100816.88;;;12.06;100.00
44457;BME280;30159;49.316;8.558;2024-02-15T03:53:11;100816.41;;;11.88;100.00
44457;BME280;30159;49.316;8.558;2024-02-15T03:55:39;100812.38;;;11.75;100.00
44457;BME280;30159;49.316;8.558;2024-02-15T03:58:06;100817.47;;;11.92;100.00
44457;BME280;30159;49.316;8.558;2024-02-15T04:00:34;100818.78;;;12.00;100.00
44457;BME280;30159;49.316;8.558;2024-02-15T04:03:01;100818.47;;;12.07;100.00
44457;BME280;30159;49.316;8.558;2024-02-15T04:05:27;100816.88;;;12.06;100.00
44457;BME280;30159;49.316;8.558;2024-02-15T04:07:54;100815.22;;;12.05;100.00
44457;BME280;30159;49.316;8.558;2024-02-15T04:10:22;100812.53;;;12.05;100.00
44457;BME280;30159;49.316;8.558;2024-02-15T04:12:49;100811.47;;;12.06;100.00
44457;BME280;30159;49.316;8.558;2024-02-15T04:15:15;100805.06;;;11.91;100.00
44457;BME280;30159;49.316;8.558;2024-02-15T04:17:43;100807.38;;;12.08;100.00
44457;BME280;30159;49.316;8.558;2024-02-15T04:20:11;100783.66;;;11.95;100.00
44457;BME280;30159;49.316;8.558;2024-02-15T04:22:39;100814.38;;;12.14;100.00
44457;BME280;30159;49.316;8.558;2024-02-15T04:25:08;100812.91;;;11.72;100.00
44457;BME280;30159;49.316;8.558;2024-02-15T04:27:37;100818.28;;;11.82;100.00
44457;BME280;30159;49.316;8.558;2024-02-15T04:30:04;100819.63;;;11.90;100.00
44457;BME280;30159;49.316;8.558;2024-02-15T04:32:32;100815.78;;;12.07;100.00
44457;BME280;30159;49.316;8.558;2024-02-15T04:34:59;100803.88;;;12.08;100.00
44457;BME280;30159;49.316;8.558;2024-02-15T04:37:27;100813.56;;;12.14;100.00
44457;BME280;30159;49.316;8.558;2024-02-15T04:39:57;100815.81;;;12.01;100.00
44457;BME280;30159;49.316;8.558;2024-02-15T04:42:24;100815.44;;;11.58;100.00
44457;BME280;30159;49.316;8.558;2024-02-15T04:44:53;100812.72;;;11.58;100.00
44457;BME280;30159;49.316;8.558;2024-02-15T04:47:20;100813.53;;;11.59;100.00
44457;BME280;30159;49.316;8.558;2024-02-15T04:49:46;100817.00;;;11.75;100.00
44457;BME280;30159;49.316;8.558;2024-02-15T04:52:13;100816.94;;;11.85;100.00
44457;BME280;30159;49.316;8.558;2024-02-15T04:54:39;100809.34;;;11.92;100.00
44457;BME280;30159;49.316;8.558;2024-02-15T04:57:06;100803.09;;;12.02;100.00
44457;BME280;30159;49.316;8.558;2024-02-15T04:59:37;100799.84;;;12.00;100.00
44457;BME280;30159;49.316;8.558;2024-02-15T05:02:04;100798.47;;;12.02;100.00
44457;BME280;30159;49.316;8.558;2024-02-15T05:04:33;100795.78;;;12.02;100.00
44457;BME280;30159;49.316;8.558;2024-02-15T05:07:01;100796.03;;;12.06;100.00
44457;BME280;30159;49.316;8.558;2024-02-15T05:09:29;100796.31;;;12.05;100.00
44457;BME280;30159;49.316;8.558;2024-02-15T05:11:56;100798.47;;;12.08;100.00
44457;BME280;30159;49.316;8.558;2024-02-15T05:14:23;100790.81;;;12.20;100.00
44457;BME280;30159;49.316;8.558;2024-02-15T05:16:49;100791.44;;;12.07;100.00
44457;BME280;30159;49.316;8.558;2024-02-15T05:19:18;100778.22;;;12.00;100.00
44457;BME280;30159;49.316;8.558;2024-02-15T05:21:45;100793.31;;;12.11;100.00
44457;BME280;30159;49.316;8.558;2024-02-15T05:24:12;100784.97;;;12.02;100.00
44457;BME280;30159;49.316;8.558;2024-02-15T05:26:39;100766.03;;;12.08;100.00
44457;BME280;30159;49.316;8.558;2024-02-15T05:29:08;100787.09;;;12.11;100.00
44457;BME280;30159;49.316;8.558;2024-02-15T05:31:35;100633.53;;;11.24;100.00
44457;BME280;30159;49.316;8.558;2024-02-15T05:34:04;100745.25;;;11.98;100.00
44457;BME280;30159;49.316;8.558;2024-02-15T05:36:34;100789.19;;;12.19;100.00
44457;BME280;30159;49.316;8.558;2024-02-15T05:39:01;100775.16;;;12.17;100.00
44457;BME280;30159;49.316;8.558;2024-02-15T05:41:28;100781.91;;;12.19;100.00
44457;BME280;30159;49.316;8.558;2024-02-15T05:43:55;100788.59;;;12.27;100.00
44457;BME280;30159;49.316;8.558;2024-02-15T05:46:23;100789.75;;;12.16;100.00
44457;BME280;30159;49.316;8.558;2024-02-15T05:48:50;100767.09;;;12.07;100.00
44457;BME280;30159;49.316;8.558;2024-02-15T05:51:17;100778.47;;;12.04;100.00
44457;BME280;30159;49.316;8.558;2024-02-15T05:53:45;100789.53;;;12.07;100.00
44457;BME280;30159;49.316;8.558;2024-02-15T05:56:12;100789.00;;;12.10;100.00
44457;BME280;30159;49.316;8.558;2024-02-15T05:58:39;100793.03;;;12.13;100.00
44457;BME280;30159;49.316;8.558;2024-02-15T06:01:06;100790.84;;;12.15;100.00
44457;BME280;30159;49.316;8.558;2024-02-15T06:03:37;100787.06;;;12.16;100.00
44457;BME280;30159;49.316;8.558;2024-02-15T06:06:06;100783.81;;;12.14;100.00
44457;BME280;30159;49.316;8.558;2024-02-15T06:08:33;100782.72;;;12.20;100.00
44457;BME280;30159;49.316;8.558;2024-02-15T06:11:01;100788.16;;;12.10;100.00
44457;BME280;30159;49.316;8.558;2024-02-15T06:13:28;100633.28;;;11.20;100.00
44457;BME280;30159;49.316;8.558;2024-02-15T06:15:55;100740.97;;;11.87;100.00
44457;BME280;30159;49.316;8.558;2024-02-15T06:18:24;100775.66;;;12.24;100.00
44457;BME280;30159;49.316;8.558;2024-02-15T06:20:52;100775.13;;;12.22;100.00
44457;BME280;30159;49.316;8.558;2024-02-15T06:23:19;100750.31;;;12.10;100.00
44457;BME280;30159;49.316;8.558;2024-02-15T06:25:46;100756.00;;;12.08;100.00
44457;BME280;30159;49.316;8.558;2024-02-15T06:28:15;100782.63;;;12.30;100.00
44457;BME280;30159;49.316;8.558;2024-02-15T06:31:05;100769.09;;;12.30;100.00
44457;BME280;30159;49.316;8.558;2024-02-15T06:33:50;100769.06;;;12.35;100.00
44457;BME280;30159;49.316;8.558;2024-02-15T06:36:39;100770.75;;;12.31;100.00
44457;BME280;30159;49.316;8.558;2024-02-15T06:39:24;100775.25;;;12.41;100.00
44457;BME280;30159;49.316;8.558;2024-02-15T06:42:07;100771.72;;;12.46;100.00
44457;BME280;30159;49.316;8.558;2024-02-15T06:44:38;100768.22;;;12.40;100.00
44457;BME280;30159;49.316;8.558;2024-02-15T06:47:06;100766.66;;;12.34;100.00
44457;BME280;30159;49.316;8.558;2024-02-15T06:49:35;100722.25;;;12.06;100.00
44457;BME280;30159;49.316;8.558;2024-02-15T06:52:02;100770.25;;;12.24;100.00
44457;BME280;30159;49.316;8.558;2024-02-15T06:54:28;100769.22;;;12.15;100.00
44457;BME280;30159;49.316;8.558;2024-02-15T06:56:55;100770.81;;;12.16;100.00
44457;BME280;30159;49.316;8.558;2024-02-15T06:59:22;100769.19;;;12.20;100.00
44457;BME280;30159;49.316;8.558;2024-02-15T07:01:50;100758.16;;;12.11;100.00
44457;BME280;30159;49.316;8.558;2024-02-15T07:04:17;100756.50;;;12.15;100.00
44457;BME280;30159;49.316;8.558;2024-02-15T07:06:44;100756.19;;;12.22;100.00
44457;BME280;30159;49.316;8.558;2024-02-15T07:09:13;100764.63;;;12.15;100.00
44457;BME280;30159;49.316;8.558;2024-02-15T07:11:43;100757.88;;;12.13;100.00
44457;BME280;30159;49.316;8.558;2024-02-15T07:14:11;100759.44;;;12.24;100.00
44457;BME280;30159;49.316;8.558;2024-02-15T07:16:38;100759.91;;;12.31;100.00
44457;BME280;30159;49.316;8.558;2024-02-15T07:19:06;100766.81;;;12.48;100.00
44457;BME280;30159;49.316;8.558;2024-02-15T07:21:34;100768.38;;;12.54;100.00
44457;BME280;30159;49.316;8.558;2024-02-15T07:24:01;100763.53;;;12.51;100.00
44457;BME280;30159;49.316;8.558;2024-02-15T07:26:30;100756.91;;;12.33;100.00
44457;BME280;30159;49.316;8.558;2024-02-15T07:28:58;100757.66;;;12.43;100.00
44457;BME280;30159;49.316;8.558;2024-02-15T07:31:28;100755.69;;;12.54;100.00
44457;BME280;30159;49.316;8.558;2024-02-15T07:33:55;100764.56;;;12.60;100.00
44457;BME280;30159;49.316;8.558;2024-02-15T07:36:24;100759.09;;;12.65;100.00
44457;BME280;30159;49.316;8.558;2024-02-15T07:38:52;100757.16;;;12.71;100.00
44457;BME280;30159;49.316;8.558;2024-02-15T07:41:20;100755.19;;;12.76;100.00
44457;BME280;30159;49.316;8.558;2024-02-15T07:43:47;100748.69;;;12.77;100.00
44457;BME280;30159;49.316;8.558;2024-02-15T07:46:14;100754.16;;;12.72;100.00
44457;BME280;30159;49.316;8.558;2024-02-15T07:48:41;100756.25;;;12.80;100.00
44457;BME280;30159;49.316;8.558;2024-02-15T07:51:11;100744.56;;;12.56;100.00
44457;BME280;30159;49.316;8.558;2024-02-15T07:53:40;100752.13;;;12.59;100.00
44457;BME280;30159;49.316;8.558;2024-02-15T07:56:08;100743.66;;;12.65;100.00
44457;BME280;30159;49.316;8.558;2024-02-15T07:58:38;100769.91;;;12.65;100.00
44457;BME280;30159;49.316;8.558;2024-02-15T08:01:05;100753.13;;;12.68;100.00
44457;BME280;30159;49.316;8.558;2024-02-15T08:03:32;100763.97;;;12.68;100.00
44457;BME280;30159;49.316;8.558;2024-02-15T08:06:00;100769.00;;;12.80;100.00
44457;BME280;30159;49.316;8.558;2024-02-15T08:08:27;100763.19;;;12.92;100.00
44457;BME280;30159;49.316;8.558;2024-02-15T08:10:55;100773.75;;;13.17;100.00
44457;BME280;30159;49.316;8.558;2024-02-15T08:13:21;100776.69;;;13.21;100.00
44457;BME280;30159;49.316;8.558;2024-02-15T08:15:54;100776.03;;;13.34;100.00
44457;BME280;30159;49.316;8.558;2024-02-15T08:18:21;100769.47;;;13.40;100.00
44457;BME280;30159;49.316;8.558;2024-02-15T08:20:48;100776.94;;;13.48;100.00
44457;BME280;30159;49.316;8.558;2024-02-15T08:23:15;100775.13;;;13.44;100.00
44457;BME280;30159;49.316;8.558;2024-02-15T08:25:42;100772.91;;;13.46;100.00
44457;BME280;30159;49.316;8.558;2024-02-15T08:28:10;100772.25;;;13.54;100.00
44457;BME280;30159;49.316;8.558;2024-02-15T08:30:37;100764.13;;;13.54;100.00
44457;BME280;30159;49.316;8.558;2024-02-15T08:33:04;100773.53;;;13.62;100.00
44457;BME280;30159;49.316;8.558;2024-02-15T08:35:30;100756.53;;;13.56;100.00
44457;BME280;30159;49.316;8.558;2024-02-15T08:37:58;100722.91;;;13.38;100.00
44457;BME280;30159;49.316;8.558;2024-02-15T08:40:25;100726.56;;;13.47;100.00
44457;BME280;30159;49.316;8.558;2024-02-15T08:42:51;100767.91;;;13.77;100.00
44457;BME280;30159;49.316;8.558;2024-02-15T08:45:19;100769.47;;;13.83;100.00
44457;BME280;30159;49.316;8.558;2024-02-15T08:47:46;100763.09;;;13.93;100.00
44457;BME280;30159;49.316;8.558;2024-02-15T08:50:15;100741.91;;;13.76;100.00
44457;BME280;30159;49.316;8.558;2024-02-15T08:52:42;100770.16;;;13.94;100.00
44457;BME280;30159;49.316;8.558;2024-02-15T08:55:10;100770.00;;;14.04;100.00
44457;BME280;30159;49.316;8.558;2024-02-15T08:57:40;100764.56;;;14.04;100.00
44457;BME280;30159;49.316;8.558;2024-02-15T09:00:11;100757.91;;;14.16;100.00
44457;BME280;30159;49.316;8.558;2024-02-15T09:02:42;100764.63;;;14.37;100.00
44457;BME280;30159;49.316;8.558;2024-02-15T09:05:09;100755.59;;;14.42;100.00
44457;BME280;30159;49.316;8.558;2024-02-15T09:07:39;100740.88;;;14.29;100.00
44457;BME280;30159;49.316;8.558;2024-02-15T09:10:07;100754.97;;;14.45;100.00
44457;BME280;30159;49.316;8.558;2024-02-15T09:12:35;100754.69;;;14.65;100.00
44457;BME280;30159;49.316;8.558;2024-02-15T09:15:06;100761.13;;;14.69;100.00
44457;BME280;30159;49.316;8.558;2024-02-15T09:17:33;100744.88;;;14.83;100.00
44457;BME280;30159;49.316;8.558;2024-02-15T09:20:07;100736.03;;;15.05;100.00
44457;BME280;30159;49.316;8.558;2024-02-15T09:22:34;100746.13;;;15.32;100.00
44457;BME280;30159;49.316;8.558;2024-02-15T09:25:01;100720.34;;;15.30;100.00
44457;BME280;30159;49.316;8.558;2024-02-15T09:27:28;100738.25;;;15.45;100.00
44457;BME280;30159;49.316;8.558;2024-02-15T09:29:55;100736.03;;;15.47;100.00
44457;BME280;30159;49.316;8.558;2024-02-15T09:32:21;100726.06;;;15.56;95.68
44457;BME280;30159;49.316;8.558;2024-02-15T09:34:48;100714.69;;;15.54;95.26
44457;BME280;30159;49.316;8.558;2024-02-15T09:37:17;100732.28;;;15.70;92.26
44457;BME280;30159;49.316;8.558;2024-02-15T09:39:43;100733.44;;;15.92;90.97
44457;BME280;30159;49.316;8.558;2024-02-15T09:42:11;100727.25;;;15.77;89.73
44457;BME280;30159;49.316;8.558;2024-02-15T09:44:38;100711.09;;;15.95;90.17
44457;BME280;30159;49.316;8.558;2024-02-15T09:47:06;100711.81;;;15.87;90.83
44457;BME280;30159;49.316;8.558;2024-02-15T09:49:35;100720.19;;;16.13;91.59
44457;BME280;30159;49.316;8.558;2024-02-15T09:52:06;100718.78;;;16.15;88.61
44457;BME280;30159;49.316;8.558;2024-02-15T09:54:35;100706.22;;;16.28;90.17
44457;BME280;30159;49.316;8.558;2024-02-15T09:57:03;100702.81;;;16.22;91.05
44457;BME280;30159;49.316;8.558;2024-02-15T09:59:30;100697.47;;;16.40;88.57
44457;BME280;30159;49.316;8.558;2024-02-15T10:01:58;100704.41;;;16.46;89.90
44457;BME280;30159;49.316;8.558;2024-02-15T10:04:25;100697.59;;;16.57;87.89
44457;BME280;30159;49.316;8.558;2024-02-15T10:06:52;100691.22;;;16.71;88.71
44457;BME280;30159;49.316;8.558;2024-02-15T10:09:26;100666.41;;;16.72;87.45
44457;BME280;30159;49.316;8.558;2024-02-15T10:11:55;100687.50;;;16.67;88.13
44457;BME280;30159;49.316;8.558;2024-02-15T10:14:23;100695.31;;;16.82;85.50
44457;BME280;30159;49.316;8.558;2024-02-15T10:16:51;100691.66;;;16.87;86.83
44457;BME280;30159;49.316;8.558;2024-02-15T10:19:18;100660.28;;;16.67;84.13
44457;BME280;30159;49.316;8.558;2024-02-15T10:21:46;100678.97;;;16.82;82.49
44457;BME280;30159;49.316;8.558;2024-02-15T10:24:12;100683.44;;;16.24;84.85
44457;BME280;30159;49.316;8.558;2024-02-15T10:26:39;100691.56;;;16.15;86.41
44457;BME280;30159;49.316;8.558;2024-02-15T10:29:08;100671.13;;;15.82;88.33
44457;BME280;30159;49.316;8.558;2024-02-15T10:31:37;100678.47;;;16.04;89.78
44457;BME280;30159;49.316;8.558;2024-02-15T10:34:06;100654.00;;;16.04;89.08
44457;BME280;30159;49.316;8.558;2024-02-15T10:36:34;100675.47;;;16.05;89.83
44457;BME280;30159;49.316;8.558;2024-02-15T10:39:11;100670.25;;;16.40;91.08
44457;BME280;30159;49.316;8.558;2024-02-15T10:41:43;100668.03;;;16.42;88.50
44457;BME280;30159;49.316;8.558;2024-02-15T10:44:15;100668.16;;;16.68;91.44
44457;BME280;30159;49.316;8.558;2024-02-15T10:46:42;100670.06;;;16.99;85.92
44457;BME280;30159;49.316;8.558;2024-02-15T10:49:11;100669.19;;;17.30;86.12
44457;BME280;30159;49.316;8.558;2024-02-15T10:51:40;100665.69;;;17.46;85.14
44457;BME280;30159;49.316;8.558;2024-02-15T10:54:12;100664.56;;;17.74;83.86
44457;BME280;30159;49.316;8.558;2024-02-15T10:56:43;100658.97;;;17.96;85.47
44457;BME280;30159;49.316;8.558;2024-02-15T10:59:17;100660.25;;;18.16;82.53
44457;BME280;30159;49.316;8.558;2024-02-15T11:01:46;100649.75;;;18.36;81.82
44457;BME280;30159;49.316;8.558;2024-02-15T11:04:14;100622.03;;;18.16;81.14
44457;BME280;30159;49.316;8.558;2024-02-15T11:06:43;100643.78;;;18.42;81.52
44457;BME280;30159;49.316;8.558;2024-02-15T11:09:11;100635.31;;;18.26;81.70
44457;BME280;30159;49.316;8.558;2024-02-15T11:11:39;100620.88;;;18.17;79.25
44457;BME280;30159;49.316;8.558;2024-02-15T11:14:30;100635.50;;;18.21;79.42
44457;BME280;30159;49.316;8.558;2024-02-15T11:16:57;100631.00;;;18.25;80.23
44457;BME280;30159;49.316;8.558;2024-02-15T11:19:43;100632.94;;;18.07;80.60
44457;BME280;30159;49.316;8.558;2024-02-15T11:22:12;100609.78;;;18.22;81.11
44457;BME280;30159;49.316;8.558;2024-02-15T11:24:46;100621.97;;;18.33;80.06
44457;BME280;30159;49.316;8.558;2024-02-15T11:27:24;100618.66;;;18.02;81.82
44457;BME280;30159;49.316;8.558;2024-02-15T11:29:54;100618.66;;;18.02;81.82
44457;BME280;30159;49.316;8.558;2024-02-15T11:32:40;100621.88;;;18.04;80.39
44457;BME280;30159;49.316;8.558;2024-02-15T11:35:10;100617.25;;;17.87;80.91
44457;BME280;30159;49.316;8.558;2024-02-15T11:37:58;100607.28;;;17.91;80.60
44457;BME280;30159;49.316;8.558;2024-02-15T11:40:29;100606.47;;;17.73;80.24
44457;BME280;30159;49.316;8.558;2024-02-15T11:42:56;100587.84;;;17.75;80.57
44457;BME280;30159;49.316;8.558;2024-02-15T11:45:26;100592.84;;;17.90;79.46
44457;BME280;30159;49.316;8.558;2024-02-15T11:47:58;100585.28;;;17.87;78.12
44457;BME280;30159;49.316;8.558;2024-02-15T11:50:27;100580.47;;;17.93;79.85
44457;BME280;30159;49.316;8.558;2024-02-15T11:53:02;100579.84;;;17.87;79.67
44457;BME280;30159;49.316;8.558;2024-02-15T11:55:34;100586.09;;;17.79;81.36
44457;BME280;30159;49.316;8.558;2024-02-15T11:58:02;100572.44;;;17.79;81.13
44457;BME280;30159;49.316;8.558;2024-02-15T12:00:32;100577.59;;;17.72;80.59
44457;BME280;30159;49.316;8.558;2024-02-15T12:03:17;100565.09;;;17.54;81.57
44457;BME280;30159;49.316;8.558;2024-02-15T12:06:01;100558.34;;;17.42;84.30
44457;BME280;30159;49.316;8.558;2024-02-15T12:08:46;100564.31;;;17.53;83.27
44457;BME280;30159;49.316;8.558;2024-02-15T12:11:30;100552.56;;;17.18;81.05
44457;BME280;30159;49.316;8.558;2024-02-15T12:14:15;100553.56;;;17.39;77.13
44457;BME280;30159;49.316;8.558;2024-02-15T12:17:04;100547.63;;;17.46;75.79
44457;BME280;30159;49.316;8.558;2024-02-15T12:19:49;100540.84;;;17.43;76.06
44457;BME280;30159;49.316;8.558;2024-02-15T12:22:18;100536.72;;;17.46;75.86
44457;BME280;30159;49.316;8.558;2024-02-15T12:24:53;100524.13;;;17.71;75.73
44457;BME280;30159;49.316;8.558;2024-02-15T12:27:21;100514.50;;;17.91;73.51
44457;BME280;30159;49.316;8.558;2024-02-15T12:29:53;100508.38;;;17.94;73.23
44457;BME280;30159;49.316;8.558;2024-02-15T12:32:22;100517.72;;;17.84;73.94
44457;BME280;30159;49.316;8.558;2024-02-15T12:34:49;100508.09;;;17.87;72.70
44457;BME280;30159;49.316;8.558;2024-02-15T12:37:18;100492.56;;;17.53;72.71
44457;BME280;30159;49.316;8.558;2024-02-15T12:39:46;100494.31;;;17.66;73.95
44457;BME280;30159;49.316;8.558;2024-02-15T12:42:13;100506.16;;;17.79;74.09
44457;BME280;30159;49.316;8.558;2024-02-15T12:44:43;100511.34;;;18.19;70.88
44457;BME280;30159;49.316;8.558;2024-02-15T12:47:18;100513.88;;;18.32;70.86
44457;BME280;30159;49.316;8.558;2024-02-15T12:49:46;100509.72;;;18.26;71.75
44457;BME280;30159;49.316;8.558;2024-02-15T12:52:32;100498.13;;;18.59;68.17